sensor_id;sensor_type;location;lat;lon;timestamp;P1;durP1;ratioP1;P2;durP2;ratioP2
14381;SDS011;7275;50.328;8.720;2023-06-24T00:00:01;4.77;;;3.80;;
14381;SDS011;7275;50.328;8.720;2023-06-24T00:02:33;4.20;;;3.77;;
14381;SDS011;7275;50.328;8.720;2023-06-24T00:05:02;4.43;;;4.03;;
14381;SDS011;7275;50.328;8.720;2023-06-24T00:07:32;4.20;;;3.80;;
14381;SDS011;7275;50.328;8.720;2023-06-24T00:10:02;4.23;;;3.87;;
14381;SDS011;7275;50.328;8.720;2023-06-24T00:12:30;3.60;;;3.30;;
14381;SDS011;7275;50.328;8.720;2023-06-24T00:14:59;3.90;;;3.50;;
14381;SDS011;7275;50.328;8.720;2023-06-24T00:17:26;4.20;;;3.80;;
14381;SDS011;7275;50.328;8.720;2023-06-24T00:19:54;4.20;;;3.80;;
14381;SDS011;7275;50.328;8.720;2023-06-24T00:22:22;3.80;;;3.50;;
14381;SDS011;7275;50.328;8.720;2023-06-24T00:24:51;3.73;;;3.37;;
14381;SDS011;7275;50.328;8.720;2023-06-24T00:27:19;4.60;;;4.03;;
14381;SDS011;7275;50.328;8.720;2023-06-24T00:29:46;5.93;;;3.80;;
14381;SDS011;7275;50.328;8.720;2023-06-24T00:32:14;6.53;;;4.10;;
14381;SDS011;7275;50.328;8.720;2023-06-24T00:34:41;4.33;;;3.70;;
14381;SDS011;7275;50.328;8.720;2023-06-24T00:37:09;4.40;;;3.80;;
14381;SDS011;7275;50.328;8.720;2023-06-24T00:39:37;3.97;;;3.57;;
14381;SDS011;7275;50.328;8.720;2023-06-24T00:42:06;4.10;;;3.63;;
14381;SDS011;7275;50.328;8.720;2023-06-24T00:44:34;4.87;;;3.80;;
14381;SDS011;7275;50.328;8.720;2023-06-24T00:47:03;4.23;;;3.67;;
14381;SDS011;7275;50.328;8.720;2023-06-24T00:49:32;4.00;;;3.60;;
14381;SDS011;7275;50.328;8.720;2023-06-24T00:51:59;4.00;;;3.60;;
14381;SDS011;7275;50.328;8.720;2023-06-24T00:54:27;3.87;;;3.57;;
14381;SDS011;7275;50.328;8.720;2023-06-24T00:56:57;3.70;;;3.40;;
14381;SDS011;7275;50.328;8.720;2023-06-24T00:59:27;4.07;;;3.67;;
14381;SDS011;7275;50.328;8.720;2023-06-24T01:01:58;4.10;;;3.50;;
14381;SDS011;7275;50.328;8.720;2023-06-24T01:04:30;8.53;;;4.00;;
14381;SDS011;7275;50.328;8.720;2023-06-24T01:06:59;4.33;;;3.80;;
14381;SDS011;7275;50.328;8.720;2023-06-24T01:09:27;4.13;;;3.67;;
14381;SDS011;7275;50.328;8.720;2023-06-24T01:11:55;3.90;;;3.60;;
14381;SDS011;7275;50.328;8.720;2023-06-24T01:14:23;4.17;;;3.77;;
14381;SDS011;7275;50.328;8.720;2023-06-24T01:16:54;3.90;;;3.50;;
14381;SDS011;7275;50.328;8.720;2023-06-24T01:19:34;4.10;;;3.80;;
14381;SDS011;7275;50.328;8.720;2023-06-24T01:22:15;4.10;;;3.50;;
14381;SDS011;7275;50.328;8.720;2023-06-24T01:25:01;4.13;;;3.60;;
14381;SDS011;7275;50.328;8.720;2023-06-24T01:28:01;4.30;;;3.90;;
14381;SDS011;7275;50.328;8.720;2023-06-24T01:30:54;4.30;;;3.90;;
14381;SDS011;7275;50.328;8.720;2023-06-24T01:33:29;4.20;;;3.80;;
14381;SDS011;7275;50.328;8.720;2023-06-24T01:36:02;4.43;;;3.93;;
14381;SDS011;7275;50.328;8.720;2023-06-24T01:38:36;4.20;;;3.80;;
14381;SDS011;7275;50.328;8.720;2023-06-24T01:41:09;6.00;;;3.83;;
14381;SDS011;7275;50.328;8.720;2023-06-24T01:43:41;6.77;;;4.10;;
14381;SDS011;7275;50.328;8.720;2023-06-24T01:46:10;4.43;;;3.90;;
14381;SDS011;7275;50.328;8.720;2023-06-24T01:48:42;3.73;;;3.43;;
14381;SDS011;7275;50.328;8.720;2023-06-24T01:51:13;3.90;;;3.50;;
14381;SDS011;7275;50.328;8.720;2023-06-24T01:53:53;3.70;;;3.40;;
14381;SDS011;7275;50.328;8.720;2023-06-24T01:56:25;4.43;;;3.80;;
14381;SDS011;7275;50.328;8.720;2023-06-24T01:58:54;4.23;;;3.60;;
14381;SDS011;7275;50.328;8.720;2023-06-24T02:01:24;4.00;;;3.70;;
14381;SDS011;7275;50.328;8.720;2023-06-24T02:03:55;4.07;;;3.67;;
14381;SDS011;7275;50.328;8.720;2023-06-24T02:06:24;4.00;;;3.60;;
14381;SDS011;7275;50.328;8.720;2023-06-24T02:08:55;4.20;;;3.80;;
14381;SDS011;7275;50.328;8.720;2023-06-24T02:11:25;5.13;;;3.50;;
14381;SDS011;7275;50.328;8.720;2023-06-24T02:13:55;4.97;;;3.70;;
14381;SDS011;7275;50.328;8.720;2023-06-24T02:16:26;5.97;;;3.67;;
14381;SDS011;7275;50.328;8.720;2023-06-24T02:18:57;3.90;;;3.50;;
14381;SDS011;7275;50.328;8.720;2023-06-24T02:21:26;5.90;;;4.03;;
14381;SDS011;7275;50.328;8.720;2023-06-24T02:23:55;4.30;;;3.90;;
14381;SDS011;7275;50.328;8.720;2023-06-24T02:26:24;4.00;;;3.60;;
14381;SDS011;7275;50.328;8.720;2023-06-24T02:28:52;4.20;;;3.80;;
14381;SDS011;7275;50.328;8.720;2023-06-24T02:31:21;5.40;;;3.93;;
14381;SDS011;7275;50.328;8.720;2023-06-24T02:33:49;4.47;;;3.70;;
14381;SDS011;7275;50.328;8.720;2023-06-24T02:36:18;5.10;;;4.03;;
14381;SDS011;7275;50.328;8.720;2023-06-24T02:38:46;4.07;;;3.70;;
14381;SDS011;7275;50.328;8.720;2023-06-24T02:41:14;4.93;;;4.00;;
14381;SDS011;7275;50.328;8.720;2023-06-24T02:43:41;5.70;;;3.70;;
14381;SDS011;7275;50.328;8.720;2023-06-24T02:46:09;4.40;;;3.93;;
14381;SDS011;7275;50.328;8.720;2023-06-24T02:48:41;4.10;;;3.70;;
14381;SDS011;7275;50.328;8.720;2023-06-24T02:51:12;4.10;;;3.70;;
14381;SDS011;7275;50.328;8.720;2023-06-24T02:53:41;4.17;;;3.77;;
14381;SDS011;7275;50.328;8.720;2023-06-24T02:56:10;4.97;;;3.67;;
14381;SDS011;7275;50.328;8.720;2023-06-24T02:58:41;4.00;;;3.70;;
14381;SDS011;7275;50.328;8.720;2023-06-24T03:01:09;5.20;;;3.80;;
14381;SDS011;7275;50.328;8.720;2023-06-24T03:03:38;4.20;;;3.80;;
14381;SDS011;7275;50.328;8.720;2023-06-24T03:06:07;3.80;;;3.40;;
14381;SDS011;7275;50.328;8.720;2023-06-24T03:08:38;4.10;;;3.70;;
14381;SDS011;7275;50.328;8.720;2023-06-24T03:11:07;4.90;;;3.67;;
14381;SDS011;7275;50.328;8.720;2023-06-24T03:13:35;4.20;;;3.80;;
14381;SDS011;7275;50.328;8.720;2023-06-24T03:16:02;5.57;;;3.70;;
14381;SDS011;7275;50.328;8.720;2023-06-24T03:18:30;5.33;;;4.03;;
14381;SDS011;7275;50.328;8.720;2023-06-24T03:20:58;5.27;;;3.47;;
14381;SDS011;7275;50.328;8.720;2023-06-24T03:23:26;4.00;;;3.60;;
14381;SDS011;7275;50.328;8.720;2023-06-24T03:25:53;5.07;;;3.77;;
14381;SDS011;7275;50.328;8.720;2023-06-24T03:28:22;3.60;;;3.30;;
14381;SDS011;7275;50.328;8.720;2023-06-24T03:30:50;4.23;;;3.60;;
14381;SDS011;7275;50.328;8.720;2023-06-24T03:33:17;4.20;;;3.80;;
14381;SDS011;7275;50.328;8.720;2023-06-24T03:35:45;3.67;;;3.37;;
14381;SDS011;7275;50.328;8.720;2023-06-24T03:38:13;3.60;;;3.30;;
14381;SDS011;7275;50.328;8.720;2023-06-24T03:40:40;4.27;;;3.87;;
14381;SDS011;7275;50.328;8.720;2023-06-24T03:43:10;3.90;;;3.40;;
14381;SDS011;7275;50.328;8.720;2023-06-24T03:45:38;3.87;;;3.47;;
14381;SDS011;7275;50.328;8.720;2023-06-24T03:48:06;4.87;;;3.60;;
14381;SDS011;7275;50.328;8.720;2023-06-24T03:50:34;3.80;;;3.40;;
14381;SDS011;7275;50.328;8.720;2023-06-24T03:53:01;4.40;;;3.63;;
14381;SDS011;7275;50.328;8.720;2023-06-24T03:55:29;4.00;;;3.60;;
14381;SDS011;7275;50.328;8.720;2023-06-24T03:57:57;4.10;;;3.70;;
14381;SDS011;7275;50.328;8.720;2023-06-24T04:00:24;3.67;;;3.37;;
14381;SDS011;7275;50.328;8.720;2023-06-24T04:02:53;5.90;;;4.07;;
14381;SDS011;7275;50.328;8.720;2023-06-24T04:05:21;4.23;;;3.83;;
14381;SDS011;7275;50.328;8.720;2023-06-24T04:07:49;4.27;;;3.80;;
14381;SDS011;7275;50.328;8.720;2023-06-24T04:10:17;4.00;;;3.70;;
14381;SDS011;7275;50.328;8.720;2023-06-24T04:12:45;4.67;;;3.90;;
14381;SDS011;7275;50.328;8.720;2023-06-24T04:15:12;3.80;;;3.40;;
14381;SDS011;7275;50.328;8.720;2023-06-24T04:17:41;4.03;;;3.63;;
14381;SDS011;7275;50.328;8.720;2023-06-24T04:20:10;5.53;;;3.60;;
14381;SDS011;7275;50.328;8.720;2023-06-24T04:22:38;4.30;;;3.80;;
14381;SDS011;7275;50.328;8.720;2023-06-24T04:25:07;4.93;;;3.90;;
14381;SDS011;7275;50.328;8.720;2023-06-24T04:27:35;4.47;;;4.07;;
14381;SDS011;7275;50.328;8.720;2023-06-24T04:30:03;4.30;;;3.90;;
14381;SDS011;7275;50.328;8.720;2023-06-24T04:32:32;4.30;;;3.90;;
14381;SDS011;7275;50.328;8.720;2023-06-24T04:34:59;5.47;;;4.10;;
14381;SDS011;7275;50.328;8.720;2023-06-24T04:37:29;5.10;;;4.33;;
14381;SDS011;7275;50.328;8.720;2023-06-24T04:39:56;4.60;;;4.20;;
14381;SDS011;7275;50.328;8.720;2023-06-24T04:42:24;4.80;;;4.40;;
14381;SDS011;7275;50.328;8.720;2023-06-24T04:44:52;4.60;;;4.20;;
14381;SDS011;7275;50.328;8.720;2023-06-24T04:47:19;4.97;;;4.47;;
14381;SDS011;7275;50.328;8.720;2023-06-24T04:49:47;4.97;;;4.47;;
14381;SDS011;7275;50.328;8.720;2023-06-24T04:52:15;5.13;;;4.63;;
14381;SDS011;7275;50.328;8.720;2023-06-24T04:54:44;4.93;;;4.43;;
14381;SDS011;7275;50.328;8.720;2023-06-24T04:57:22;5.43;;;4.93;;
14381;SDS011;7275;50.328;8.720;2023-06-24T04:59:51;6.23;;;5.03;;
14381;SDS011;7275;50.328;8.720;2023-06-24T05:02:18;5.97;;;5.23;;
14381;SDS011;7275;50.328;8.720;2023-06-24T05:04:46;5.50;;;5.00;;
14381;SDS011;7275;50.328;8.720;2023-06-24T05:07:13;5.43;;;4.93;;
14381;SDS011;7275;50.328;8.720;2023-06-24T05:09:41;6.07;;;5.37;;
14381;SDS011;7275;50.328;8.720;2023-06-24T05:12:11;6.93;;;5.80;;
14381;SDS011;7275;50.328;8.720;2023-06-24T05:14:38;6.00;;;5.40;;
14381;SDS011;7275;50.328;8.720;2023-06-24T05:17:06;6.03;;;5.50;;
14381;SDS011;7275;50.328;8.720;2023-06-24T05:19:33;6.00;;;5.43;;
14381;SDS011;7275;50.328;8.720;2023-06-24T05:22:01;6.83;;;5.53;;
14381;SDS011;7275;50.328;8.720;2023-06-24T05:24:29;6.17;;;5.40;;
14381;SDS011;7275;50.328;8.720;2023-06-24T05:27:03;6.07;;;5.47;;
14381;SDS011;7275;50.328;8.720;2023-06-24T05:29:33;5.60;;;4.90;;
14381;SDS011;7275;50.328;8.720;2023-06-24T05:32:01;6.43;;;5.50;;
14381;SDS011;7275;50.328;8.720;2023-06-24T05:34:30;6.00;;;5.40;;
14381;SDS011;7275;50.328;8.720;2023-06-24T05:36:57;5.77;;;5.20;;
14381;SDS011;7275;50.328;8.720;2023-06-24T05:39:25;6.17;;;5.57;;
14381;SDS011;7275;50.328;8.720;2023-06-24T05:41:53;6.00;;;5.40;;
14381;SDS011;7275;50.328;8.720;2023-06-24T05:44:20;6.13;;;5.60;;
14381;SDS011;7275;50.328;8.720;2023-06-24T05:46:50;6.00;;;5.40;;
14381;SDS011;7275;50.328;8.720;2023-06-24T05:49:18;6.30;;;5.70;;
14381;SDS011;7275;50.328;8.720;2023-06-24T05:51:45;5.97;;;5.47;;
14381;SDS011;7275;50.328;8.720;2023-06-24T05:54:13;5.83;;;5.23;;
14381;SDS011;7275;50.328;8.720;2023-06-24T05:56:40;6.50;;;5.90;;
14381;SDS011;7275;50.328;8.720;2023-06-24T05:59:08;6.47;;;5.83;;
14381;SDS011;7275;50.328;8.720;2023-06-24T06:01:35;6.07;;;5.47;;
14381;SDS011;7275;50.328;8.720;2023-06-24T06:04:04;5.80;;;5.27;;
14381;SDS011;7275;50.328;8.720;2023-06-24T06:06:32;5.63;;;5.13;;
14381;SDS011;7275;50.328;8.720;2023-06-24T06:08:59;5.90;;;5.30;;
14381;SDS011;7275;50.328;8.720;2023-06-24T06:11:27;6.50;;;5.77;;
14381;SDS011;7275;50.328;8.720;2023-06-24T06:13:55;6.20;;;5.60;;
14381;SDS011;7275;50.328;8.720;2023-06-24T06:16:23;6.97;;;5.77;;
14381;SDS011;7275;50.328;8.720;2023-06-24T06:18:51;6.47;;;5.87;;
14381;SDS011;7275;50.328;8.720;2023-06-24T06:21:20;6.97;;;6.07;;
14381;SDS011;7275;50.328;8.720;2023-06-24T06:23:47;6.53;;;5.63;;
14381;SDS011;7275;50.328;8.720;2023-06-24T06:26:15;7.77;;;5.60;;
14381;SDS011;7275;50.328;8.720;2023-06-24T06:28:43;6.40;;;5.80;;
14381;SDS011;7275;50.328;8.720;2023-06-24T06:31:10;6.57;;;5.87;;
14381;SDS011;7275;50.328;8.720;2023-06-24T06:33:38;7.23;;;6.30;;
14381;SDS011;7275;50.328;8.720;2023-06-24T06:36:05;7.07;;;6.37;;
14381;SDS011;7275;50.328;8.720;2023-06-24T06:38:34;7.20;;;6.50;;
14381;SDS011;7275;50.328;8.720;2023-06-24T06:41:02;6.80;;;6.10;;
14381;SDS011;7275;50.328;8.720;2023-06-24T06:43:30;6.63;;;6.03;;
14381;SDS011;7275;50.328;8.720;2023-06-24T06:45:57;6.27;;;5.67;;
14381;SDS011;7275;50.328;8.720;2023-06-24T06:48:25;6.27;;;5.67;;
14381;SDS011;7275;50.328;8.720;2023-06-24T06:50:52;8.20;;;6.50;;
14381;SDS011;7275;50.328;8.720;2023-06-24T06:53:20;6.50;;;5.87;;
14381;SDS011;7275;50.328;8.720;2023-06-24T06:55:49;7.10;;;6.17;;
14381;SDS011;7275;50.328;8.720;2023-06-24T06:58:16;6.00;;;5.40;;
14381;SDS011;7275;50.328;8.720;2023-06-24T07:00:44;6.50;;;5.90;;
14381;SDS011;7275;50.328;8.720;2023-06-24T07:03:12;7.83;;;6.53;;
14381;SDS011;7275;50.328;8.720;2023-06-24T07:05:40;7.00;;;6.30;;
14381;SDS011;7275;50.328;8.720;2023-06-24T07:08:08;7.30;;;5.77;;
14381;SDS011;7275;50.328;8.720;2023-06-24T07:10:36;6.87;;;6.23;;
14381;SDS011;7275;50.328;8.720;2023-06-24T07:13:05;7.13;;;5.97;;
14381;SDS011;7275;50.328;8.720;2023-06-24T07:15:32;7.50;;;6.20;;
14381;SDS011;7275;50.328;8.720;2023-06-24T07:18:00;6.97;;;5.87;;
14381;SDS011;7275;50.328;8.720;2023-06-24T07:20:28;6.60;;;5.90;;
14381;SDS011;7275;50.328;8.720;2023-06-24T07:22:55;6.80;;;6.10;;
14381;SDS011;7275;50.328;8.720;2023-06-24T07:25:23;6.53;;;5.93;;
14381;SDS011;7275;50.328;8.720;2023-06-24T07:27:51;8.73;;;5.70;;
14381;SDS011;7275;50.328;8.720;2023-06-24T07:30:20;6.72;;;6.13;;
14381;SDS011;7275;50.328;8.720;2023-06-24T07:32:48;6.93;;;6.25;;
14381;SDS011;7275;50.328;8.720;2023-06-24T07:35:15;6.60;;;5.90;;
14381;SDS011;7275;50.328;8.720;2023-06-24T07:37:45;5.82;;;5.25;;
14381;SDS011;7275;50.328;8.720;2023-06-24T07:40:12;7.47;;;6.68;;
14381;SDS011;7275;50.328;8.720;2023-06-24T07:42:41;6.80;;;5.97;;
14381;SDS011;7275;50.328;8.720;2023-06-24T07:45:09;7.40;;;5.90;;
14381;SDS011;7275;50.328;8.720;2023-06-24T07:47:38;7.03;;;6.30;;
14381;SDS011;7275;50.328;8.720;2023-06-24T07:50:06;6.80;;;5.20;;
14381;SDS011;7275;50.328;8.720;2023-06-24T07:52:35;7.68;;;6.25;;
14381;SDS011;7275;50.328;8.720;2023-06-24T07:55:02;6.63;;;5.75;;
14381;SDS011;7275;50.328;8.720;2023-06-24T07:57:30;6.18;;;5.57;;
14381;SDS011;7275;50.328;8.720;2023-06-24T07:59:58;6.43;;;5.38;;
14381;SDS011;7275;50.328;8.720;2023-06-24T08:02:25;7.75;;;5.68;;
14381;SDS011;7275;50.328;8.720;2023-06-24T08:04:54;6.10;;;5.50;;
14381;SDS011;7275;50.328;8.720;2023-06-24T08:07:22;5.97;;;5.13;;
14381;SDS011;7275;50.328;8.720;2023-06-24T08:09:50;6.88;;;5.28;;
14381;SDS011;7275;50.328;8.720;2023-06-24T08:12:17;5.93;;;5.30;;
14381;SDS011;7275;50.328;8.720;2023-06-24T08:14:45;5.90;;;5.30;;
14381;SDS011;7275;50.328;8.720;2023-06-24T08:17:13;6.05;;;5.55;;
14381;SDS011;7275;50.328;8.720;2023-06-24T08:19:40;5.80;;;5.28;;
14381;SDS011;7275;50.328;8.720;2023-06-24T08:22:09;8.77;;;6.03;;
14381;SDS011;7275;50.328;8.720;2023-06-24T08:24:37;7.95;;;5.20;;
14381;SDS011;7275;50.328;8.720;2023-06-24T08:27:04;5.72;;;5.15;;
14381;SDS011;7275;50.328;8.720;2023-06-24T08:29:32;4.88;;;4.47;;
14381;SDS011;7275;50.328;8.720;2023-06-24T08:32:17;5.57;;;5.00;;
14381;SDS011;7275;50.328;8.720;2023-06-24T08:34:45;6.50;;;5.25;;
14381;SDS011;7275;50.328;8.720;2023-06-24T08:37:14;5.85;;;4.80;;
14381;SDS011;7275;50.328;8.720;2023-06-24T08:39:42;6.70;;;5.10;;
14381;SDS011;7275;50.328;8.720;2023-06-24T08:42:09;7.57;;;5.07;;
14381;SDS011;7275;50.328;8.720;2023-06-24T08:44:37;6.25;;;5.53;;
14381;SDS011;7275;50.328;8.720;2023-06-24T08:47:04;5.90;;;5.40;;
14381;SDS011;7275;50.328;8.720;2023-06-24T08:49:32;5.00;;;4.55;;
14381;SDS011;7275;50.328;8.720;2023-06-24T08:52:07;5.70;;;5.03;;
14381;SDS011;7275;50.328;8.720;2023-06-24T08:54:40;5.75;;;4.78;;
14381;SDS011;7275;50.328;8.720;2023-06-24T08:57:09;8.52;;;5.50;;
14381;SDS011;7275;50.328;8.720;2023-06-24T08:59:40;5.75;;;5.15;;
14381;SDS011;7275;50.328;8.720;2023-06-24T09:02:08;5.35;;;4.85;;
14381;SDS011;7275;50.328;8.720;2023-06-24T09:04:37;4.78;;;4.15;;
14381;SDS011;7275;50.328;8.720;2023-06-24T09:07:05;5.38;;;4.82;;
14381;SDS011;7275;50.328;8.720;2023-06-24T09:09:34;6.18;;;4.97;;
14381;SDS011;7275;50.328;8.720;2023-06-24T09:12:12;4.85;;;4.45;;
14381;SDS011;7275;50.328;8.720;2023-06-24T09:14:42;4.47;;;4.07;;
14381;SDS011;7275;50.328;8.720;2023-06-24T09:17:15;4.50;;;4.05;;
14381;SDS011;7275;50.328;8.720;2023-06-24T09:19:43;6.40;;;3.97;;
14381;SDS011;7275;50.328;8.720;2023-06-24T09:22:11;4.57;;;4.18;;
14381;SDS011;7275;50.328;8.720;2023-06-24T09:24:45;5.57;;;4.47;;
14381;SDS011;7275;50.328;8.720;2023-06-24T09:27:14;4.40;;;4.00;;
14381;SDS011;7275;50.328;8.720;2023-06-24T09:29:42;5.18;;;4.35;;
14381;SDS011;7275;50.328;8.720;2023-06-24T09:32:10;5.22;;;4.10;;
14381;SDS011;7275;50.328;8.720;2023-06-24T09:34:38;4.30;;;3.90;;
14381;SDS011;7275;50.328;8.720;2023-06-24T09:37:06;4.57;;;4.15;;
14381;SDS011;7275;50.328;8.720;2023-06-24T09:39:37;4.25;;;3.85;;
14381;SDS011;7275;50.328;8.720;2023-06-24T09:42:08;4.32;;;3.90;;
14381;SDS011;7275;50.328;8.720;2023-06-24T09:44:37;4.70;;;3.58;;
14381;SDS011;7275;50.328;8.720;2023-06-24T09:47:04;4.80;;;4.28;;
14381;SDS011;7275;50.328;8.720;2023-06-24T09:49:33;4.50;;;4.10;;
14381;SDS011;7275;50.328;8.720;2023-06-24T09:52:00;4.38;;;3.97;;
14381;SDS011;7275;50.328;8.720;2023-06-24T09:54:30;4.47;;;3.88;;
14381;SDS011;7275;50.328;8.720;2023-06-24T09:57:01;4.53;;;4.13;;
14381;SDS011;7275;50.328;8.720;2023-06-24T09:59:31;4.28;;;3.65;;
14381;SDS011;7275;50.328;8.720;2023-06-24T10:02:00;4.40;;;3.67;;
14381;SDS011;7275;50.328;8.720;2023-06-24T10:04:30;3.58;;;3.28;;
14381;SDS011;7275;50.328;8.720;2023-06-24T10:06:59;4.68;;;3.38;;
14381;SDS011;7275;50.328;8.720;2023-06-24T10:09:28;6.25;;;3.83;;
14381;SDS011;7275;50.328;8.720;2023-06-24T10:11:56;4.32;;;3.92;;
14381;SDS011;7275;50.328;8.720;2023-06-24T10:14:24;5.95;;;3.92;;
14381;SDS011;7275;50.328;8.720;2023-06-24T10:17:01;3.92;;;3.58;;
14381;SDS011;7275;50.328;8.720;2023-06-24T10:19:29;3.85;;;3.55;;
14381;SDS011;7275;50.328;8.720;2023-06-24T10:21:57;3.85;;;3.50;;
14381;SDS011;7275;50.328;8.720;2023-06-24T10:24:29;5.35;;;3.63;;
14381;SDS011;7275;50.328;8.720;2023-06-24T10:27:01;4.30;;;3.90;;
14381;SDS011;7275;50.328;8.720;2023-06-24T10:29:30;5.20;;;3.72;;
14381;SDS011;7275;50.328;8.720;2023-06-24T10:32:06;3.75;;;3.45;;
14381;SDS011;7275;50.328;8.720;2023-06-24T10:34:38;4.40;;;4.00;;
14381;SDS011;7275;50.328;8.720;2023-06-24T10:37:11;5.40;;;3.58;;
14381;SDS011;7275;50.328;8.720;2023-06-24T10:39:45;3.78;;;3.47;;
14381;SDS011;7275;50.328;8.720;2023-06-24T10:42:25;4.03;;;3.45;;
14381;SDS011;7275;50.328;8.720;2023-06-24T10:44:56;4.30;;;3.90;;
14381;SDS011;7275;50.328;8.720;2023-06-24T10:47:26;3.42;;;3.13;;
14381;SDS011;7275;50.328;8.720;2023-06-24T10:49:55;4.57;;;4.15;;
14381;SDS011;7275;50.328;8.720;2023-06-24T10:52:22;4.40;;;4.00;;
14381;SDS011;7275;50.328;8.720;2023-06-24T10:54:51;5.05;;;4.10;;
14381;SDS011;7275;50.328;8.720;2023-06-24T10:57:23;4.82;;;3.78;;
14381;SDS011;7275;50.328;8.720;2023-06-24T10:59:52;4.05;;;3.60;;
14381;SDS011;7275;50.328;8.720;2023-06-24T11:02:21;4.10;;;3.70;;
14381;SDS011;7275;50.328;8.720;2023-06-24T11:04:52;3.97;;;3.58;;
14381;SDS011;7275;50.328;8.720;2023-06-24T11:07:21;3.92;;;3.45;;
14381;SDS011;7275;50.328;8.720;2023-06-24T11:09:50;4.15;;;3.75;;
14381;SDS011;7275;50.328;8.720;2023-06-24T11:12:19;3.53;;;3.22;;
14381;SDS011;7275;50.328;8.720;2023-06-24T11:14:50;3.85;;;3.30;;
14381;SDS011;7275;50.328;8.720;2023-06-24T11:17:19;4.13;;;3.53;;
14381;SDS011;7275;50.328;8.720;2023-06-24T11:19:46;3.75;;;3.45;;
14381;SDS011;7275;50.328;8.720;2023-06-24T11:22:15;4.82;;;3.63;;
14381;SDS011;7275;50.328;8.720;2023-06-24T11:24:46;3.72;;;3.30;;
14381;SDS011;7275;50.328;8.720;2023-06-24T11:27:13;4.00;;;3.60;;
14381;SDS011;7275;50.328;8.720;2023-06-24T11:29:41;4.05;;;3.53;;
14381;SDS011;7275;50.328;8.720;2023-06-24T11:32:09;5.35;;;4.07;;
14381;SDS011;7275;50.328;8.720;2023-06-24T11:34:37;4.40;;;4.00;;
14381;SDS011;7275;50.328;8.720;2023-06-24T11:37:08;3.72;;;3.40;;
14381;SDS011;7275;50.328;8.720;2023-06-24T11:39:39;3.97;;;3.58;;
14381;SDS011;7275;50.328;8.720;2023-06-24T11:42:07;3.75;;;3.35;;
14381;SDS011;7275;50.328;8.720;2023-06-24T11:44:35;3.60;;;3.13;;
14381;SDS011;7275;50.328;8.720;2023-06-24T11:47:08;3.67;;;3.38;;
14381;SDS011;7275;50.328;8.720;2023-06-24T11:49:49;4.25;;;3.85;;
14381;SDS011;7275;50.328;8.720;2023-06-24T11:52:19;4.22;;;3.55;;
14381;SDS011;7275;50.328;8.720;2023-06-24T11:54:49;3.70;;;3.40;;
14381;SDS011;7275;50.328;8.720;2023-06-24T11:57:17;4.82;;;3.72;;
14381;SDS011;7275;50.328;8.720;2023-06-24T11:59:45;3.67;;;3.30;;
14381;SDS011;7275;50.328;8.720;2023-06-24T12:02:13;4.35;;;3.83;;
14381;SDS011;7275;50.328;8.720;2023-06-24T12:04:43;3.72;;;3.38;;
14381;SDS011;7275;50.328;8.720;2023-06-24T12:07:12;3.60;;;3.30;;
14381;SDS011;7275;50.328;8.720;2023-06-24T12:09:40;3.78;;;3.47;;
14381;SDS011;7275;50.328;8.720;2023-06-24T12:12:09;3.92;;;3.55;;
14381;SDS011;7275;50.328;8.720;2023-06-24T12:14:37;5.13;;;3.60;;
14381;SDS011;7275;50.328;8.720;2023-06-24T12:17:04;3.88;;;3.58;;
14381;SDS011;7275;50.328;8.720;2023-06-24T12:19:32;4.22;;;3.83;;
14381;SDS011;7275;50.328;8.720;2023-06-24T12:22:00;3.97;;;3.67;;
14381;SDS011;7275;50.328;8.720;2023-06-24T12:24:27;3.90;;;3.60;;
14381;SDS011;7275;50.328;8.720;2023-06-24T12:26:55;3.88;;;3.55;;
14381;SDS011;7275;50.328;8.720;2023-06-24T12:29:24;4.60;;;3.20;;
14381;SDS011;7275;50.328;8.720;2023-06-24T12:31:51;3.92;;;3.63;;
14381;SDS011;7275;50.328;8.720;2023-06-24T12:34:19;3.70;;;3.40;;
14381;SDS011;7275;50.328;8.720;2023-06-24T12:36:47;3.95;;;3.50;;
14381;SDS011;7275;50.328;8.720;2023-06-24T12:39:14;3.40;;;3.10;;
14381;SDS011;7275;50.328;8.720;2023-06-24T12:41:45;5.50;;;3.90;;
14381;SDS011;7275;50.328;8.720;2023-06-24T12:44:13;3.70;;;3.40;;
14381;SDS011;7275;50.328;8.720;2023-06-24T12:46:42;3.47;;;3.17;;
14381;SDS011;7275;50.328;8.720;2023-06-24T12:49:10;4.20;;;3.60;;
14381;SDS011;7275;50.328;8.720;2023-06-24T12:51:37;3.63;;;3.33;;
14381;SDS011;7275;50.328;8.720;2023-06-24T12:54:05;7.50;;;3.60;;
14381;SDS011;7275;50.328;8.720;2023-06-24T12:56:33;4.40;;;3.70;;
14381;SDS011;7275;50.328;8.720;2023-06-24T12:59:00;4.00;;;3.70;;
14381;SDS011;7275;50.328;8.720;2023-06-24T13:01:28;3.80;;;3.50;;
14381;SDS011;7275;50.328;8.720;2023-06-24T13:03:57;4.00;;;3.70;;
14381;SDS011;7275;50.328;8.720;2023-06-24T13:06:25;3.67;;;3.38;;
14381;SDS011;7275;50.328;8.720;2023-06-24T13:08:52;4.05;;;3.33;;
14381;SDS011;7275;50.328;8.720;2023-06-24T13:11:20;5.38;;;3.80;;
14381;SDS011;7275;50.328;8.720;2023-06-24T13:13:47;3.92;;;3.40;;
14381;SDS011;7275;50.328;8.720;2023-06-24T13:16:15;4.00;;;3.60;;
14381;SDS011;7275;50.328;8.720;2023-06-24T13:18:42;4.07;;;3.67;;
14381;SDS011;7275;50.328;8.720;2023-06-24T13:21:11;3.50;;;3.20;;
14381;SDS011;7275;50.328;8.720;2023-06-24T13:23:41;4.25;;;3.85;;
14381;SDS011;7275;50.328;8.720;2023-06-24T13:26:09;4.38;;;3.83;;
14381;SDS011;7275;50.328;8.720;2023-06-24T13:28:38;3.95;;;3.50;;
14381;SDS011;7275;50.328;8.720;2023-06-24T13:31:05;4.57;;;3.50;;
14381;SDS011;7275;50.328;8.720;2023-06-24T13:33:33;3.90;;;3.60;;
14381;SDS011;7275;50.328;8.720;2023-06-24T13:36:01;3.55;;;3.25;;
14381;SDS011;7275;50.328;8.720;2023-06-24T13:38:30;5.32;;;3.60;;
14381;SDS011;7275;50.328;8.720;2023-06-24T13:40:57;3.63;;;3.33;;
14381;SDS011;7275;50.328;8.720;2023-06-24T13:43:25;4.07;;;3.67;;
14381;SDS011;7275;50.328;8.720;2023-06-24T13:45:52;3.90;;;3.50;;
14381;SDS011;7275;50.328;8.720;2023-06-24T13:48:20;3.70;;;3.40;;
14381;SDS011;7275;50.328;8.720;2023-06-24T13:50:47;3.78;;;3.17;;
14381;SDS011;7275;50.328;8.720;2023-06-24T13:53:15;5.90;;;3.70;;
14381;SDS011;7275;50.328;8.720;2023-06-24T13:55:44;5.72;;;3.50;;
14381;SDS011;7275;50.328;8.720;2023-06-24T13:58:11;3.60;;;3.30;;
14381;SDS011;7275;50.328;8.720;2023-06-24T14:00:39;3.72;;;3.40;;
14381;SDS011;7275;50.328;8.720;2023-06-24T14:03:06;3.58;;;3.28;;
14381;SDS011;7275;50.328;8.720;2023-06-24T14:05:34;6.78;;;3.40;;
14381;SDS011;7275;50.328;8.720;2023-06-24T14:08:02;3.80;;;3.50;;
14381;SDS011;7275;50.328;8.720;2023-06-24T14:10:30;4.20;;;3.90;;
14381;SDS011;7275;50.328;8.720;2023-06-24T14:12:58;4.15;;;3.75;;
14381;SDS011;7275;50.328;8.720;2023-06-24T14:15:26;4.03;;;3.63;;
14381;SDS011;7275;50.328;8.720;2023-06-24T14:17:54;4.00;;;3.53;;
14381;SDS011;7275;50.328;8.720;2023-06-24T14:20:22;5.18;;;4.18;;
14381;SDS011;7275;50.328;8.720;2023-06-24T14:22:51;4.13;;;3.50;;
14381;SDS011;7275;50.328;8.720;2023-06-24T14:25:18;3.75;;;3.45;;
14381;SDS011;7275;50.328;8.720;2023-06-24T14:27:46;4.53;;;3.60;;
14381;SDS011;7275;50.328;8.720;2023-06-24T14:30:15;3.88;;;3.58;;
14381;SDS011;7275;50.328;8.720;2023-06-24T14:32:42;5.90;;;3.70;;
14381;SDS011;7275;50.328;8.720;2023-06-24T14:35:10;11.35;;;3.80;;
14381;SDS011;7275;50.328;8.720;2023-06-24T14:37:37;3.70;;;3.40;;
14381;SDS011;7275;50.328;8.720;2023-06-24T14:40:06;4.40;;;3.70;;
14381;SDS011;7275;50.328;8.720;2023-06-24T14:42:35;3.80;;;3.50;;
14381;SDS011;7275;50.328;8.720;2023-06-24T14:45:03;3.65;;;3.33;;
14381;SDS011;7275;50.328;8.720;2023-06-24T14:47:32;3.97;;;3.58;;
14381;SDS011;7275;50.328;8.720;2023-06-24T14:50:00;3.40;;;3.10;;
14381;SDS011;7275;50.328;8.720;2023-06-24T14:52:28;3.47;;;3.17;;
14381;SDS011;7275;50.328;8.720;2023-06-24T14:54:55;4.40;;;3.45;;
14381;SDS011;7275;50.328;8.720;2023-06-24T14:57:23;3.80;;;3.50;;
14381;SDS011;7275;50.328;8.720;2023-06-24T14:59:51;4.18;;;3.30;;
14381;SDS011;7275;50.328;8.720;2023-06-24T15:02:19;3.78;;;3.47;;
14381;SDS011;7275;50.328;8.720;2023-06-24T15:04:48;3.70;;;3.40;;
14381;SDS011;7275;50.328;8.720;2023-06-24T15:07:15;4.25;;;3.63;;
14381;SDS011;7275;50.328;8.720;2023-06-24T15:09:43;3.70;;;3.40;;